Time;durP1;ratioP1;P1;durP2;ratioP2;P2;SDS_P1;SDS_P2;PMS_P1;PMS_P2;Temp;Humidity;BMP_temperature;BMP_pressure;BME280_temperature;BME280_humidity;BME280_pressure;Samples;Min_cycle;Max_cycle;Signal;HPM_P1;HPM_P2
2023/05/21 00:01:39;;;;;;;1999.90;999.90;;;13.90;99.90;;;;;;5068286;28;20805;-71
2023/05/21 00:04:06;;;;;;;1999.90;999.90;;;13.90;99.90;;;;;;5068008;28;20427;-71
2023/05/21 00:06:34;;;;;;;1999.90;999.90;;;13.90;99.90;;;;;;5068034;28;20838;-71
2023/05/21 00:09:03;;;;;;;1999.90;999.90;;;13.90;99.90;;;;;;5067037;28;20431;-71
2023/05/21 00:11:29;;;;;;;1999.90;999.90;;;13.80;99.90;;;;;;5068252;28;20839;-71
2023/05/21 00:13:56;;;;;;;1999.90;999.90;;;13.80;99.90;;;;;;5068080;28;20489;-70
2023/05/21 00:16:23;;;;;;;1999.90;999.90;;;13.60;99.90;;;;;;5067793;28;20481;-70
2023/05/21 00:18:50;;;;;;;1999.90;999.90;;;13.60;99.90;;;;;;5066901;28;20856;-69
2023/05/21 00:21:17;;;;;;;1999.90;999.90;;;13.60;99.90;;;;;;5067358;28;20469;-70
2023/05/21 00:23:44;;;;;;;1999.90;999.90;;;13.60;99.90;;;;;;5068474;28;20433;-71
2023/05/21 00:26:12;;;;;;;1999.90;999.90;;;13.60;99.90;;;;;;5067105;28;20500;-73
2023/05/21 00:28:38;;;;;;;1999.90;999.90;;;13.50;99.90;;;;;;5066046;28;20925;-72
2023/05/21 00:31:05;;;;;;;1999.90;999.90;;;13.50;99.90;;;;;;5067440;28;20431;-72
2023/05/21 00:33:32;;;;;;;1999.90;999.90;;;13.40;99.90;;;;;;5070678;28;20438;-71
2023/05/21 00:35:59;;;;;;;1999.90;999.90;;;13.40;99.90;;;;;;5070589;28;20583;-71
2023/05/21 00:38:26;;;;;;;1999.90;999.90;;;13.40;99.90;;;;;;5070912;28;22392;-71
2023/05/21 00:40:53;;;;;;;1999.90;999.90;;;13.30;99.90;;;;;;5071321;28;20439;-72
2023/05/21 00:43:25;;;;;;;1999.90;999.90;;;13.20;99.90;;;;;;5065901;28;20794;-73
2023/05/21 00:45:52;;;;;;;1999.90;999.90;;;13.30;99.90;;;;;;5068700;28;20431;-72
2023/05/21 00:48:20;;;;;;;1999.90;999.90;;;13.30;99.90;;;;;;5071221;28;20442;-73
2023/05/21 00:50:48;;;;;;;1999.90;999.90;;;13.40;99.90;;;;;;5071302;28;20431;-73
2023/05/21 00:53:17;;;;;;;1999.90;999.90;;;13.50;99.90;;;;;;5071366;28;20510;-72
2023/05/21 00:55:44;;;;;;;1999.90;999.90;;;13.40;99.90;;;;;;5066622;28;20786;-73
2023/05/21 00:58:11;;;;;;;1999.90;999.90;;;13.50;99.90;;;;;;5068807;28;20423;-72
2023/05/21 01:00:39;;;;;;;1999.90;999.90;;;13.40;99.90;;;;;;5071022;28;20525;-73
2023/05/21 01:03:06;;;;;;;1999.90;999.90;;;13.30;99.90;;;;;;5069191;28;20514;-73
2023/05/21 01:05:33;;;;;;;1999.90;999.90;;;13.40;99.90;;;;;;5070313;28;20435;-73
2023/05/21 01:08:00;;;;;;;1999.90;999.90;;;13.40;99.90;;;;;;5067640;28;20436;-72
2023/05/21 01:10:27;;;;;;;1999.90;999.90;;;13.40;99.90;;;;;;5067636;28;20485;-73
2023/05/21 01:12:56;;;;;;;1999.90;999.90;;;13.30;99.90;;;;;;5070078;28;20858;-72
2023/05/21 01:15:23;;;;;;;1999.90;999.90;;;13.20;99.90;;;;;;5068083;28;20442;-73
2023/05/21 01:17:51;;;;;;;1999.90;999.90;;;13.20;99.90;;;;;;5070407;28;20836;-73
2023/05/21 01:20:19;;;;;;;1999.90;999.90;;;13.10;99.90;;;;;;5070535;28;20940;-71
2023/05/21 01:22:53;;;;;;;1999.90;999.90;;;13.00;99.90;;;;;;5066300;28;20434;-73
2023/05/21 01:25:20;;;;;;;1999.90;999.90;;;12.80;99.90;;;;;;5068856;28;20940;-72
2023/05/21 01:27:46;;;;;;;1999.90;999.90;;;12.80;99.90;;;;;;5070373;28;20443;-73
2023/05/21 01:30:14;;;;;;;1999.90;999.90;;;12.70;99.90;;;;;;5069209;28;20439;-72
2023/05/21 01:32:46;;;;;;;1999.90;999.90;;;12.80;99.90;;;;;;5068743;28;20478;-73
2023/05/21 01:35:17;;;;;;;1999.90;999.90;;;12.80;99.90;;;;;;5069490;28;20435;-72
2023/05/21 01:37:47;;;;;;;1999.90;999.90;;;12.60;99.90;;;;;;5070472;28;20436;-72
2023/05/21 01:40:22;;;;;;;1999.90;999.90;;;12.50;99.90;;;;;;5070263;28;20856;-73
2023/05/21 01:42:49;;;;;;;1999.90;999.90;;;12.40;99.90;;;;;;5069399;28;20431;-72
2023/05/21 01:45:17;;;;;;;1999.90;999.90;;;12.50;99.90;;;;;;5067929;28;20431;-73
2023/05/21 01:47:47;;;;;;;1999.90;999.90;;;12.20;99.90;;;;;;5070010;28;20504;-73
2023/05/21 01:50:14;;;;;;;1999.90;999.90;;;12.30;99.90;;;;;;5070178;28;20459;-72
2023/05/21 01:52:49;;;;;;;1999.90;999.90;;;12.30;99.90;;;;;;5070326;28;20433;-73
2023/05/21 01:55:17;;;;;;;1999.90;999.90;;;12.30;99.90;;;;;;5067906;28;20450;-72
2023/05/21 01:57:43;;;;;;;1999.90;999.90;;;12.40;99.90;;;;;;5069836;28;20473;-73
2023/05/21 02:00:12;;;;;;;1999.90;999.90;;;12.30;99.90;;;;;;5069715;28;20868;-71
2023/05/21 02:02:39;;;;;;;1999.90;999.90;;;12.50;99.90;;;;;;5068140;28;20435;-73
2023/05/21 02:05:07;;;;;;;1999.90;999.90;;;12.50;99.90;;;;;;5069493;28;20435;-73
2023/05/21 02:07:34;;;;;;;1999.90;999.90;;;12.50;99.90;;;;;;5067289;28;20939;-73
2023/05/21 02:10:00;;;;;;;1999.90;999.90;;;12.60;99.90;;;;;;5069450;28;20979;-72
2023/05/21 02:12:28;;;;;;;1999.90;999.90;;;12.50;99.90;;;;;;5068233;28;20482;-73
2023/05/21 02:14:56;;;;;;;1999.90;999.90;;;12.40;99.90;;;;;;5069182;28;20481;-72
2023/05/21 02:17:23;;;;;;;1999.90;999.90;;;12.20;99.90;;;;;;5069501;28;20489;-72
2023/05/21 02:19:50;;;;;;;1999.90;999.90;;;12.30;99.90;;;;;;5068527;28;21016;-73
2023/05/21 02:22:17;;;;;;;1999.90;999.90;;;12.20;99.90;;;;;;5069428;28;20461;-73
2023/05/21 02:24:44;;;;;;;1999.90;999.90;;;12.20;99.90;;;;;;5068619;28;20485;-73
2023/05/21 02:27:12;;;;;;;1999.90;999.90;;;12.20;99.90;;;;;;5069175;28;20767;-73
2023/05/21 02:29:40;;;;;;;1999.90;999.90;;;12.20;99.90;;;;;;5064262;28;20452;-71
2023/05/21 02:32:07;;;;;;;1999.90;999.90;;;12.20;99.90;;;;;;5065146;28;20489;-72
2023/05/21 02:34:36;;;;;;;1999.90;999.90;;;12.00;99.90;;;;;;5067365;28;20919;-73
2023/05/21 02:37:02;;;;;;;1999.90;999.90;;;12.00;99.90;;;;;;5068141;28;20505;-72
2023/05/21 02:39:29;;;;;;;1999.90;999.90;;;12.00;99.90;;;;;;5068942;28;20434;-73
2023/05/21 02:41:56;;;;;;;1999.90;999.90;;;11.90;99.90;;;;;;5068813;28;20451;-72
2023/05/21 02:44:22;;;;;;;1999.90;999.90;;;11.90;99.90;;;;;;5066646;28;20483;-72
2023/05/21 02:46:50;;;;;;;1999.90;999.90;;;11.90;99.90;;;;;;5068462;28;20423;-71
2023/05/21 02:49:17;;;;;;;1999.90;999.90;;;11.90;99.90;;;;;;5068766;28;20537;-73
2023/05/21 02:51:44;;;;;;;1999.90;999.90;;;12.00;99.90;;;;;;5068791;28;20940;-73
2023/05/21 02:54:10;;;;;;;1999.90;999.90;;;12.10;99.90;;;;;;5059457;28;20476;-72
2023/05/21 02:56:37;;;;;;;1999.90;999.90;;;12.20;99.90;;;;;;5066285;28;20921;-71
2023/05/21 02:59:03;;;;;;;1999.90;999.90;;;12.20;99.90;;;;;;5068611;28;20427;-73
2023/05/21 03:01:30;;;;;;;1999.90;999.90;;;12.10;99.90;;;;;;5068792;28;20427;-72
2023/05/21 03:03:58;;;;;;;1999.90;999.90;;;12.10;99.90;;;;;;5053772;28;20432;-73
2023/05/21 03:06:25;;;;;;;1999.90;999.90;;;12.10;99.90;;;;;;5066516;28;20493;-72
2023/05/21 03:08:51;;;;;;;1999.90;999.90;;;12.00;99.90;;;;;;5065988;28;20436;-72
2023/05/21 03:11:18;;;;;;;1999.90;999.90;;;11.90;99.90;;;;;;5065012;28;20481;-72
2023/05/21 03:13:45;;;;;;;1999.90;999.90;;;11.90;99.90;;;;;;5068788;28;20561;-73
2023/05/21 03:16:12;;;;;;;1999.90;999.90;;;12.00;99.90;;;;;;5068262;28;20466;-72
2023/05/21 03:18:39;;;;;;;1999.90;999.90;;;12.10;99.90;;;;;;5061666;28;20790;-73
2023/05/21 03:21:07;;;;;;;1999.90;999.90;;;12.10;99.90;;;;;;5063597;28;20998;-72
2023/05/21 03:23:34;;;;;;;1999.90;999.90;;;12.10;99.90;;;;;;5067489;28;20977;-72
2023/05/21 03:26:01;;;;;;;1999.90;999.90;;;12.20;99.90;;;;;;5068575;28;20439;-73
2023/05/21 03:28:27;;;;;;;1999.90;999.90;;;12.10;99.90;;;;;;5067598;28;20431;-70
2023/05/21 03:30:54;;;;;;;1999.90;999.90;;;12.20;99.90;;;;;;5067924;28;20504;-72
2023/05/21 03:33:22;;;;;;;1999.90;999.90;;;12.30;99.90;;;;;;5068244;28;20438;-71
2023/05/21 03:35:48;;;;;;;1999.90;999.90;;;12.30;99.90;;;;;;5067509;28;20442;-72
2023/05/21 03:38:16;;;;;;;1999.90;999.90;;;12.30;99.90;;;;;;5068015;28;20443;-72
2023/05/21 03:40:43;;;;;;;1999.90;999.90;;;12.30;99.90;;;;;;5061293;28;20831;-73
2023/05/21 03:43:10;;;;;;;1999.90;999.90;;;12.30;99.90;;;;;;5068339;28;20427;-72
2023/05/21 03:45:36;;;;;;;1999.90;999.90;;;12.30;99.90;;;;;;5067447;28;20921;-72
2023/05/21 03:48:03;;;;;;;1999.90;999.90;;;12.40;99.90;;;;;;5068191;28;20427;-72
2023/05/21 03:50:30;;;;;;;1999.90;999.90;;;12.50;99.90;;;;;;5066769;28;20432;-72
2023/05/21 03:52:57;;;;;;;1999.90;999.90;;;12.60;99.90;;;;;;5068154;28;20984;-73
2023/05/21 03:55:25;;;;;;;1999.90;999.90;;;12.70;99.90;;;;;;5068131;28;20836;-71
2023/05/21 03:57:51;;;;;;;1999.90;999.90;;;12.70;99.90;;;;;;5068385;28;20439;-71
2023/05/21 04:00:18;;;;;;;1999.90;999.90;;;12.60;99.90;;;;;;5059252;28;20479;-72
2023/05/21 04:02:45;;;;;;;1999.90;999.90;;;12.70;99.90;;;;;;5068095;28;20493;-73
2023/05/21 04:05:12;;;;;;;1999.90;999.90;;;12.70;99.90;;;;;;5068460;28;20925;-72
2023/05/21 04:07:39;;;;;;;1999.90;999.90;;;12.80;99.90;;;;;;5072116;28;20431;-72
2023/05/21 04:10:07;;;;;;;1999.90;999.90;;;12.80;99.90;;;;;;5093814;22;20439;-71
2023/05/21 04:12:35;;;;;;;1999.90;999.90;;;12.70;99.90;;;;;;5071286;28;20516;-72
2023/05/21 04:15:01;;;;;;;1999.90;999.90;;;12.80;99.90;;;;;;5071904;28;20431;-72
2023/05/21 04:17:28;;;;;;;1999.90;999.90;;;12.70;99.90;;;;;;5068663;28;20515;-72
2023/05/21 04:19:55;;;;;;;1999.90;999.90;;;12.80;99.90;;;;;;5065875;28;20424;-72
2023/05/21 04:22:22;;;;;;;1999.90;999.90;;;12.80;99.90;;;;;;5083918;28;20437;-72
2023/05/21 04:24:49;;;;;;;1999.90;999.90;;;12.80;99.90;;;;;;5089769;28;20452;-71
2023/05/21 04:27:15;;;;;;;1999.90;999.90;;;12.80;99.90;;;;;;5084409;28;20811;-72
2023/05/21 04:29:43;;;;;;;1999.90;999.90;;;12.80;99.90;;;;;;5091939;28;20429;-72
2023/05/21 04:32:10;;;;;;;1999.90;999.90;;;13.00;99.90;;;;;;5076809;28;20489;-72
2023/05/21 04:34:38;;;;;;;1999.90;999.90;;;13.10;99.90;;;;;;5090395;28;20437;-71
2023/05/21 04:37:05;;;;;;;1999.90;999.90;;;13.20;99.90;;;;;;5088277;28;20965;-72
2023/05/21 04:39:33;;;;;;;1999.90;999.90;;;13.20;99.90;;;;;;5081885;28;20454;-72
2023/05/21 04:42:00;;;;;;;1999.90;999.90;;;13.20;99.90;;;;;;5089749;28;20478;-76
2023/05/21 04:44:27;;;;;;;1999.90;999.90;;;13.20;99.90;;;;;;5092031;28;20547;-72
2023/05/21 04:46:56;;;;;;;1999.90;999.90;;;13.30;99.90;;;;;;5090000;28;20974;-70
2023/05/21 04:49:23;;;;;;;1999.90;999.90;;;13.50;99.90;;;;;;5085225;28;20430;-72
2023/05/21 04:51:49;;;;;;;1999.90;999.90;;;13.70;99.90;;;;;;5079836;28;20481;-72
2023/05/21 04:54:16;;;;;;;1999.90;999.90;;;13.60;99.90;;;;;;5077372;28;20431;-73
2023/05/21 04:56:43;;;;;;;1999.90;999.90;;;13.80;99.90;;;;;;5091328;28;20426;-72
2023/05/21 04:59:09;;;;;;;1999.90;999.90;;;13.90;99.90;;;;;;5088030;28;20459;-69
2023/05/21 05:01:37;;;;;;;1999.90;999.90;;;13.80;99.90;;;;;;5082588;28;20503;-70
2023/05/21 05:04:05;;;;;;;1999.90;999.90;;;13.70;99.90;;;;;;5080035;28;20432;-73
2023/05/21 05:06:32;;;;;;;1999.90;999.90;;;13.80;99.90;;;;;;5074568;28;20843;-71
2023/05/21 05:08:59;;;;;;;1999.90;999.90;;;14.00;99.90;;;;;;5084027;28;20475;-71
2023/05/21 05:11:26;;;;;;;1999.90;999.90;;;14.30;99.90;;;;;;5081966;28;20430;-73
2023/05/21 05:13:52;;;;;;;1999.90;999.90;;;14.60;99.90;;;;;;5082013;28;20424;-71
2023/05/21 05:16:23;;;;;;;1999.90;999.90;;;14.80;99.90;;;;;;5078613;28;20433;-70
2023/05/21 05:18:50;;;;;;;1999.90;999.90;;;15.10;99.90;;;;;;5077489;28;20573;-70
2023/05/21 05:21:18;;;;;;;1999.90;999.90;;;15.30;99.90;;;;;;5088550;28;20509;-72
2023/05/21 05:23:45;;;;;;;1999.90;999.90;;;15.20;99.90;;;;;;5088565;28;20502;-69
2023/05/21 05:26:11;;;;;;;1999.90;999.90;;;15.30;99.90;;;;;;5085324;28;20433;-73
2023/05/21 05:28:38;;;;;;;1999.90;999.90;;;15.60;99.90;;;;;;5074179;28;20435;-72
2023/05/21 05:31:05;;;;;;;1999.90;999.90;;;15.80;99.90;;;;;;5080638;28;21082;-73
2023/05/21 05:33:32;;;;;;;1999.90;999.90;;;15.90;99.90;;;;;;5085918;28;20504;-73
2023/05/21 05:35:59;;;;;;;1999.90;999.90;;;15.80;99.90;;;;;;5082539;28;20999;-73
2023/05/21 05:38:27;;;;;;;1999.90;999.90;;;16.00;99.90;;;;;;5089897;28;20511;-74
2023/05/21 05:40:53;;;;;;;1999.90;999.90;;;16.10;99.90;;;;;;5083987;28;20459;-73
2023/05/21 05:43:20;;;;;;;1999.90;999.90;;;16.40;99.90;;;;;;5086994;28;20475;-70
2023/05/21 05:45:47;;;;;;;1999.90;999.90;;;16.30;99.90;;;;;;5085439;28;20438;-73
2023/05/21 05:48:13;;;;;;;1999.90;999.90;;;16.60;99.90;;;;;;5083122;28;20799;-70
2023/05/21 05:50:40;;;;;;;1999.90;999.90;;;16.50;99.90;;;;;;5084559;28;20440;-72
2023/05/21 05:53:07;;;;;;;1999.90;999.90;;;16.40;99.90;;;;;;5090904;28;20430;-71
2023/05/21 05:55:35;;;;;;;1999.90;999.90;;;16.30;99.90;;;;;;5081160;28;20433;-70
2023/05/21 05:58:01;;;;;;;1999.90;999.90;;;16.10;99.90;;;;;;5083580;28;20830;-72
2023/05/21 06:00:28;;;;;;;1999.90;999.90;;;16.20;99.90;;;;;;5082768;28;20503;-73
2023/05/21 06:02:55;;;;;;;1999.90;999.90;;;16.30;99.90;;;;;;5077799;28;20497;-70
2023/05/21 06:05:21;;;;;;;1999.90;999.90;;;16.10;99.90;;;;;;5089295;28;20475;-71
2023/05/21 06:07:48;;;;;;;1999.90;999.90;;;16.00;99.90;;;;;;5081613;28;20425;-72
2023/05/21 06:10:15;;;;;;;1999.90;999.90;;;16.10;99.90;;;;;;5085584;28;20438;-74
2023/05/21 06:12:43;;;;;;;1999.90;999.90;;;16.20;99.90;;;;;;5082485;28;20489;-73
2023/05/21 06:15:10;;;;;;;1999.90;999.90;;;16.30;99.90;;;;;;5081128;28;20433;-71
2023/05/21 06:17:36;;;;;;;1999.90;999.90;;;16.50;99.90;;;;;;5080133;28;20471;-71
2023/05/21 06:20:04;;;;;;;1999.90;999.90;;;16.80;99.90;;;;;;5090091;28;20492;-71
2023/05/21 06:22:30;;;;;;;1999.90;999.90;;;17.30;99.90;;;;;;5087592;28;20919;-73
2023/05/21 06:24:57;;;;;;;1999.90;999.90;;;17.40;99.90;;;;;;5086133;28;20437;-69
2023/05/21 06:27:24;;;;;;;1999.90;999.90;;;17.60;99.90;;;;;;5081873;28;20434;-70
2023/05/21 06:29:52;;;;;;;1999.90;999.90;;;17.60;99.90;;;;;;5075037;28;20464;-75
2023/05/21 06:32:20;;;;;;;1999.90;999.90;;;17.60;99.90;;;;;;5085518;28;20456;-70
2023/05/21 06:34:46;;;;;;;1999.90;999.90;;;18.00;99.90;;;;;;5086745;28;20418;-73
2023/05/21 06:37:13;;;;;;;1999.90;999.90;;;17.70;99.90;;;;;;5084773;28;20433;-73
2023/05/21 06:39:40;;;;;;;1999.90;999.90;;;17.80;99.90;;;;;;5082403;28;20913;-71
2023/05/21 06:42:06;;;;;;;1999.90;999.90;;;17.90;99.90;;;;;;5082787;28;20495;-73
2023/05/21 06:44:33;;;;;;;1999.90;999.90;;;18.20;99.90;;;;;;5086482;28;20541;-75
2023/05/21 06:47:01;;;;;;;1999.90;999.90;;;18.10;99.90;;;;;;5075632;28;20435;-74
2023/05/21 06:49:27;;;;;;;1999.90;999.90;;;18.30;99.90;;;;;;5078071;28;20432;-73
2023/05/21 06:51:54;;;;;;;1999.90;999.90;;;18.30;99.90;;;;;;5086061;28;20449;-72
2023/05/21 06:54:21;;;;;;;1999.90;999.90;;;18.50;99.90;;;;;;5087880;28;20549;-73
2023/05/21 06:56:47;;;;;;;1999.90;999.90;;;18.30;99.90;;;;;;5078982;28;20485;-76
2023/05/21 06:59:14;;;;;;;1999.90;999.90;;;18.10;99.90;;;;;;5080479;28;20431;-75
2023/05/21 07:01:42;;;;;;;1999.90;999.90;;;18.10;99.90;;;;;;5084457;28;20431;-73
2023/05/21 07:04:10;;;;;;;1999.90;999.90;;;18.40;99.90;;;;;;5081961;28;20981;-74
2023/05/21 07:06:39;;;;;;;1999.90;999.90;;;18.40;99.90;;;;;;5090976;28;20418;-73
2023/05/21 07:09:05;;;;;;;1999.90;999.90;;;18.30;99.90;;;;;;5091020;28;20422;-73
2023/05/21 07:11:32;;;;;;;1999.90;999.90;;;18.20;99.90;;;;;;5090623;28;20471;-75
2023/05/21 07:14:00;;;;;;;1999.90;999.90;;;18.30;99.90;;;;;;5090940;28;20422;-73
2023/05/21 07:16:27;;;;;;;1999.90;999.90;;;18.40;99.90;;;;;;5090605;28;20409;-73
2023/05/21 07:18:53;;;;;;;1999.90;999.90;;;18.50;99.90;;;;;;5084723;28;20435;-75
2023/05/21 07:21:21;;;;;;;1999.90;999.90;;;19.10;99.90;;;;;;5078914;28;20416;-73
2023/05/21 07:23:48;;;;;;;1999.90;999.90;;;19.40;99.90;;;;;;5070895;28;20480;-72
2023/05/21 07:26:15;;;;;;;1999.90;999.90;;;19.50;99.90;;;;;;5070480;28;20477;-71
2023/05/21 07:28:41;;;;;;;1999.90;999.90;;;19.40;99.90;;;;;;5070767;28;20513;-74
2023/05/21 07:31:10;;;;;;;1999.90;999.90;;;19.60;99.90;;;;;;5070507;28;20477;-74
2023/05/21 07:33:36;;;;;;;1999.90;999.90;;;19.60;99.90;;;;;;5078410;28;20414;-74
2023/05/21 07:36:03;;;;;;;1999.90;999.90;;;19.40;99.90;;;;;;5071502;28;20923;-73
2023/05/21 07:38:32;;;;;;;1999.90;999.90;;;19.40;99.90;;;;;;5079989;28;20413;-73
2023/05/21 07:40:58;;;;;;;1999.90;999.90;;;19.50;99.90;;;;;;5092862;28;20455;-74
2023/05/21 07:43:25;;;;;;;1999.90;999.90;;;19.50;99.90;;;;;;5094873;28;20471;-74
2023/05/21 07:45:52;;;;;;;1999.90;999.90;;;19.60;99.90;;;;;;5092155;28;20903;-73
2023/05/21 07:48:19;;;;;;;1999.90;999.90;;;19.80;99.90;;;;;;5086441;28;20470;-74
2023/05/21 07:50:48;;;;;;;1999.90;999.90;;;19.80;99.90;;;;;;5074037;28;20984;-75
2023/05/21 07:53:15;;;;;;;1999.90;999.90;;;20.10;99.90;;;;;;5074465;28;20415;-74
2023/05/21 07:55:46;;;;;;;1999.90;999.90;;;20.50;99.90;;;;;;5073963;28;20411;-74
2023/05/21 07:58:13;;;;;;;1999.90;999.90;;;20.70;99.90;;;;;;5074335;28;20786;-74
2023/05/21 08:00:43;;;;;;;1999.90;999.90;;;20.90;99.90;;;;;;5082042;28;20439;-74
2023/05/21 08:03:11;;;;;;;1999.90;999.90;;;21.20;99.90;;;;;;5079768;28;20526;-74
2023/05/21 08:05:38;;;;;;;1999.90;999.90;;;21.10;99.90;;;;;;5082541;28;20524;-72
2023/05/21 08:08:05;;;;;;;1999.90;999.90;;;21.00;99.90;;;;;;5074026;28;20411;-74
2023/05/21 08:10:32;;;;;;;1999.90;999.90;;;20.90;99.90;;;;;;5086258;28;20429;-73
2023/05/21 08:13:00;;;;;;;1999.90;999.90;;;20.80;99.90;;;;;;5089975;28;21421;-73
2023/05/21 08:15:26;;;;;;;1999.90;999.90;;;20.70;99.90;;;;;;5082748;28;20904;-73
2023/05/21 08:17:53;;;;;;;1999.90;999.90;;;20.80;99.90;;;;;;5082138;28;20431;-75
2023/05/21 08:20:20;;;;;;;1999.90;999.90;;;21.10;99.90;;;;;;5077666;28;20547;-73
2023/05/21 08:22:47;;;;;;;1999.90;999.90;;;21.30;99.90;;;;;;5076343;28;20531;-75
2023/05/21 08:25:13;;;;;;;1999.90;999.90;;;21.10;99.90;;;;;;5077727;28;20435;-76
2023/05/21 08:27:41;;;;;;;1999.90;999.90;;;21.20;99.90;;;;;;5076162;28;20435;-73
2023/05/21 08:30:10;;;;;;;1999.90;999.90;;;21.00;99.90;;;;;;5072941;28;20909;-76
2023/05/21 08:32:37;;;;;;;1999.90;999.90;;;20.80;99.90;;;;;;5085920;28;20943;-74
2023/05/21 08:35:04;;;;;;;1999.90;999.90;;;20.70;99.90;;;;;;5089930;28;20502;-73
2023/05/21 08:37:31;;;;;;;1999.90;999.90;;;20.70;99.90;;;;;;5082141;28;20502;-74
2023/05/21 08:39:58;;;;;;;1999.90;999.90;;;20.40;99.90;;;;;;5077621;28;20433;-73
2023/05/21 08:42:32;;;;;;;1999.90;999.90;;;20.30;99.90;;;;;;5086752;28;20438;-74
2023/05/21 08:45:00;;;;;;;1999.90;999.90;;;20.10;99.90;;;;;;5092029;28;20443;-74
2023/05/21 08:47:34;;;;;;;1999.90;999.90;;;20.10;99.90;;;;;;5082739;28;20427;-74
2023/05/21 08:50:02;;;;;;;1999.90;999.90;;;20.00;99.90;;;;;;5089713;28;20432;-74
2023/05/21 08:52:30;;;;;;;1999.90;999.90;;;19.90;99.90;;;;;;5089298;28;20433;-74
2023/05/21 08:54:57;;;;;;;1999.90;999.90;;;19.80;99.90;;;;;;5088731;28;20437;-74
2023/05/21 08:57:26;;;;;;;1999.90;999.90;;;19.70;99.90;;;;;;5088258;28;20475;-75
2023/05/21 08:59:53;;;;;;;1999.90;999.90;;;20.20;99.90;;;;;;5087970;28;20427;-74
2023/05/21 09:02:19;;;;;;;1999.90;999.90;;;20.00;99.90;;;;;;5080827;28;20432;-73
2023/05/21 09:04:49;;;;;;;1999.90;999.90;;;20.50;99.90;;;;;;5077990;28;20438;-74
2023/05/21 09:07:16;;;;;;;1999.90;999.90;;;20.40;99.90;;;;;;5082560;28;20439;-72
2023/05/21 09:09:48;;;;;;;1999.90;999.90;;;20.60;99.90;;;;;;5089716;28;20475;-73
2023/05/21 09:12:15;;;;;;;1999.90;999.90;;;20.50;99.90;;;;;;5085506;28;20824;-73
2023/05/21 09:14:43;;;;;;;1999.90;999.90;;;20.50;99.90;;;;;;5073250;28;20416;-73
2023/05/21 09:17:13;;;;;;;1999.90;999.90;;;20.40;99.90;;;;;;5072807;28;20450;-70
2023/05/21 09:20:08;;;;;;;1999.90;999.90;;;20.50;99.90;;;;;;5072737;28;21067;-74
2023/05/21 09:22:35;;;;;;;1999.90;999.90;;;20.70;99.90;;;;;;5078429;28;20434;-72
2023/05/21 09:25:06;;;;;;;1999.90;999.90;;;21.10;99.90;;;;;;5079511;28;20994;-70
2023/05/21 09:27:33;;;;;;;1999.90;999.90;;;21.30;99.90;;;;;;5090252;28;20537;-69
2023/05/21 09:30:00;;;;;;;1999.90;999.90;;;21.70;99.90;;;;;;5091768;28;20467;-74
2023/05/21 09:32:26;;;;;;;1999.90;999.90;;;21.70;99.90;;;;;;5092312;28;20488;-73
2023/05/21 09:34:53;;;;;;;1999.90;999.90;;;21.80;99.90;;;;;;5092290;28;20414;-75
2023/05/21 09:37:21;;;;;;;1999.90;999.90;;;21.80;99.90;;;;;;5083401;28;20794;-75
2023/05/21 09:39:48;;;;;;;1999.90;999.90;;;21.70;99.90;;;;;;5083314;28;20987;-72
2023/05/21 09:42:15;;;;;;;1999.90;999.90;;;21.60;99.90;;;;;;5083061;28;20986;-73
2023/05/21 09:44:43;;;;;;;1999.90;999.90;;;21.80;99.90;;;;;;5073578;28;20525;-74
2023/05/21 09:47:10;;;;;;;1999.90;999.90;;;21.60;99.90;;;;;;5077244;28;20432;-74
2023/05/21 09:49:37;;;;;;;1999.90;999.90;;;21.90;99.90;;;;;;5080161;28;20858;-72
2023/05/21 09:52:04;;;;;;;1999.90;999.90;;;21.60;99.90;;;;;;5079887;28;20432;-73
2023/05/21 09:54:34;;;;;;;1999.90;999.90;;;21.70;99.90;;;;;;5075043;28;20440;-72
2023/05/21 09:57:01;;;;;;;1999.90;999.90;;;21.70;99.90;;;;;;5078046;28;20527;-72
2023/05/21 09:59:36;;;;;;;1999.90;999.90;;;21.80;99.90;;;;;;5079990;28;20861;-72
2023/05/21 10:02:03;;;;;;;1999.90;999.90;;;22.00;99.90;;;;;;5085905;28;20437;-73
2023/05/21 10:04:31;;;;;;;1999.90;999.90;;;22.20;99.90;;;;;;5075545;28;20991;-73
2023/05/21 10:07:00;;;;;;;1999.90;999.90;;;22.10;99.90;;;;;;5075402;28;20846;-70
2023/05/21 10:09:29;;;;;;;1999.90;999.90;;;22.20;99.90;;;;;;5076973;28;20993;-74
2023/05/21 10:14:36;;;;;;;1999.90;999.90;;;22.50;99.90;;;;;;5062719;28;20409;-70
2023/05/21 10:17:06;;;;;;;1999.90;999.90;;;22.60;99.90;;;;;;5076188;28;20434;-69
2023/05/21 10:19:35;;;;;;;1999.90;999.90;;;23.00;99.90;;;;;;5081938;28;20501;-70
2023/05/21 10:22:03;;;;;;;1999.90;999.90;;;23.20;99.90;;;;;;5075306;28;21007;-70
2023/05/21 10:24:30;;;;;;;1999.90;999.90;;;23.10;99.90;;;;;;5060976;28;20463;-69
2023/05/21 10:26:58;;;;;;;1999.90;999.90;;;23.00;99.90;;;;;;5065038;28;20436;-70
2023/05/21 10:29:25;;;;;;;1999.90;999.90;;;22.80;99.90;;;;;;5065232;28;20435;-71
2023/05/21 10:31:53;;;;;;;1999.90;999.90;;;22.60;99.90;;;;;;5063813;28;20810;-70
2023/05/21 10:34:23;;;;;;;1999.90;999.90;;;22.60;99.90;;;;;;5060577;28;20486;-70
2023/05/21 10:36:50;;;;;;;1999.90;999.90;;;22.90;99.90;;;;;;5063023;28;20449;-70
2023/05/21 10:39:20;;;;;;;1999.90;999.90;;;23.00;99.90;;;;;;5063708;28;20437;-70
2023/05/21 10:41:55;;;;;;;1999.90;999.90;;;23.20;99.90;;;;;;5063249;28;20448;-70
2023/05/21 10:48:02;;;;;;;1999.90;999.90;;;23.70;99.90;;;;;;5059986;28;20955;-71
2023/05/21 10:51:04;;;;;;;1999.90;999.90;;;24.10;99.90;;;;;;5057650;28;20438;-71
2023/05/21 10:53:42;;;;;;;1999.90;999.90;;;24.20;99.90;;;;;;5037957;28;20424;-70
2023/05/21 10:56:17;;;;;;;1999.90;999.90;;;24.20;99.90;;;;;;5059584;28;20434;-70
2023/05/21 10:59:07;;;;;;;1999.90;999.90;;;24.30;99.90;;;;;;5061194;28;20918;-70
2023/05/21 11:01:37;;;;;;;1999.90;999.90;;;24.50;99.90;;;;;;5057889;28;20480;-73
2023/05/21 11:04:05;;;;;;;1999.90;999.90;;;24.70;99.90;;;;;;5064793;28;20456;-73
2023/05/21 11:06:32;;;;;;;1999.90;999.90;;;24.50;99.90;;;;;;5062638;28;20483;-72
2023/05/21 11:09:02;;;;;;;1999.90;999.90;;;24.30;99.90;;;;;;5058648;28;20491;-71
2023/05/21 11:11:44;;;;;;;1999.90;999.90;;;24.40;99.90;;;;;;5055072;28;20434;-70
2023/05/21 11:14:37;;;;;;;1999.90;999.90;;;24.30;99.90;;;;;;5080713;28;20939;-70
2023/05/21 11:17:10;;;;;;;1999.90;999.90;;;24.60;99.90;;;;;;5081936;28;20465;-70
2023/05/21 11:19:40;;;;;;;1999.90;999.90;;;24.70;99.90;;;;;;5080645;28;20437;-71
2023/05/21 11:22:08;;;;;;;1999.90;999.90;;;24.70;99.90;;;;;;5076912;28;20434;-68
2023/05/21 11:24:38;;;;;;;1999.90;999.90;;;25.00;99.90;;;;;;5078520;28;20434;-73
2023/05/21 11:27:05;;;;;;;1999.90;999.90;;;24.90;99.90;;;;;;5067728;28;20518;-72
2023/05/21 11:29:39;;;;;;;1999.90;999.90;;;24.80;99.90;;;;;;5069666;28;20917;-74
2023/05/21 11:32:07;;;;;;;1999.90;999.90;;;24.70;99.90;;;;;;5067610;28;20455;-73
2023/05/21 11:34:39;;;;;;;1999.90;999.90;;;24.70;99.90;;;;;;5069744;28;20434;-73
2023/05/21 11:37:26;;;;;;;1999.90;999.90;;;24.90;99.90;;;;;;5069982;28;20438;-73
2023/05/21 11:39:53;;;;;;;1999.90;999.90;;;25.00;99.90;;;;;;5069005;28;20447;-69
2023/05/21 11:42:31;;;;;;;1999.90;999.90;;;24.80;99.90;;;;;;5066120;28;20927;-70
2023/05/21 11:44:58;;;;;;;1999.90;999.90;;;24.90;99.90;;;;;;5069269;28;20438;-70
2023/05/21 11:47:26;;;;;;;1999.90;999.90;;;24.90;99.90;;;;;;5063288;28;20428;-70
2023/05/21 11:49:55;;;;;;;1999.90;999.90;;;24.90;99.90;;;;;;5067366;28;20492;-70
2023/05/21 11:52:22;;;;;;;1999.90;999.90;;;24.80;99.90;;;;;;5069221;28;20435;-70
2023/05/21 11:54:53;;;;;;;1999.90;999.90;;;24.90;99.90;;;;;;5070129;28;20427;-70
2023/05/21 11:57:22;;;;;;;1999.90;999.90;;;25.10;99.90;;;;;;5070918;28;20461;-71
2023/05/21 11:59:50;;;;;;;1999.90;999.90;;;25.30;99.90;;;;;;5067353;28;20976;-70
2023/05/21 12:02:18;;;;;;;1999.90;999.90;;;25.70;99.90;;;;;;5063341;28;20461;-71
2023/05/21 12:04:47;;;;;;;1999.90;999.90;;;26.00;99.90;;;;;;5070096;28;20420;-69
2023/05/21 12:07:16;;;;;;;1999.90;999.90;;;26.30;99.90;;;;;;5069974;28;20836;-72
2023/05/21 12:09:45;;;;;;;1999.90;999.90;;;26.40;99.90;;;;;;5067818;28;20428;-70